西西电影站

 找回密码
 立即注册
收藏本版 |订阅

立体3D电影 今日: 0|主题: 312|排名: 9 

作者 回复/查看 最后发表
[BT下载]愤怒的小鸟[3D左右 国粤英]2016.1080p.Half-SBS.3D.BluRay.x264.DTS-WiKi 8.7 ... attach_img 百度云电影 2016-8-3 062 百度云电影 2016-8-3 19:17
[BT下载]愤怒的小鸟[3D上下]2016.1080p.3D.BluRay.Half-OU.x264.DTS-HD.MA.7.1-RARBG ... 百度云电影 2016-8-3 066 百度云电影 2016-8-3 19:17
[BT下载]愤怒的小鸟[3D左右]2016.1080p.3D.BluRay.Half-SBS.x264.DTS-HD.MA.7.1-RARBG ... 百度云电影 2016-8-3 046 百度云电影 2016-8-3 19:17
[BT下载]功夫熊猫3[3D左右 国粤英台]2016.1080p.Half-SBS.3D.BluRay.x264.DTS-WiKi 8. ... attach_img 百度云电影 2016-7-13 095 百度云电影 2016-7-13 15:45
[BT下载]蝙蝠侠大战超人:正义黎明[3D上下]2016.1080p.3D.BluRay.Half-OU.x264.TrueHD. ... attach_img 百度云电影 2016-7-9 068 百度云电影 2016-7-9 15:36
[BT下载]蝙蝠侠大战超人:正义黎明[3D上下]2016.1080p.3D.BluRay.Half-OU.x264.DTS-HD. ... attach_img 百度云电影 2016-7-9 047 百度云电影 2016-7-9 15:36
[BT下载]蝙蝠侠大战超人:正义黎明[3D左右]201.1080p.3D.BluRay.Half-SBS.x264.TrueHD. ... attach_img 百度云电影 2016-7-9 065 百度云电影 2016-7-9 15:36
[BT下载]美人鱼[国英双语]The.Mermaid.2016.LIMITED.720p.BluRay.x264-USURY 5.47GB ... attach_img 百度云电影 2016-7-9 0109 百度云电影 2016-7-9 15:36
[BD-3D] [BT下载]美人鱼[国英双语]The.Mermaid.2016.LIMITED.1080p.BluRay.x264-USURY ... attach_img 百度云电影 2016-7-9 084 百度云电影 2016-7-9 15:36
[BT下载]蝙蝠侠大战超人:正义黎明[3D左右]2016.3D.1080p.BluRay.x264-SPRiNTER 9.8GB ... attach_img 百度云电影 2016-7-8 066 百度云电影 2016-7-8 15:35
[BT下载]功夫熊猫3[3D左右]2016.1080p.3D.BluRay.Half-SBS.x264.DTS-HD.MA.7.1-RARBG ... attach_img 百度云电影 2016-7-2 093 百度云电影 2016-7-2 15:09
[BT下载]功夫熊猫3[3D上下]2016.1080p.3D.BluRay.Half-OU.x264.DTS-HD.MA.7.1-RARBG 1 ... attach_img 百度云电影 2016-7-2 059 百度云电影 2016-7-2 15:09
[BT下载]功夫熊猫3[3D左右]Kung.Fu.Panda.3.2016.3D.1080p.BluRay.x264-SPRiNTER 4.37 ... attach_img 百度云电影 2016-6-29 078 百度云电影 2016-6-29 15:00
[BT下载]Milwood.2013.3D.1080p.BluRay.x264-VALUE 6.57GB attach_img 百度云电影 2016-6-24 0124 百度云电影 2016-6-24 14:37
[BT下载]Milwood.2013.3D.720p.BluRay.x264-VALUE 4.37GB attach_img 百度云电影 2016-6-24 059 百度云电影 2016-6-24 14:37
[BT下载]大白鲨3[3D左右]Jaws.3D.1983.1080p.BluRay.x264-PSYCHD 9.83GB attach_img 百度云电影 2016-6-22 0123 百度云电影 2016-6-22 14:31
[BT磁链] [疯狂动物城].Zootopia.2016.1080p.Half-SBS.3D.BluRay.x264.DTS-WiKi[9.85G ... attach_img 百度云电影 2016-6-15 0157 百度云电影 2016-6-15 14:06
[BT下载]太空之旅/宇宙之旅[3D左右]Journey.to.Space.2015.3D.1080p.BluRay.x264-SPRi ... attach_img 百度云电影 2016-6-12 0136 百度云电影 2016-6-12 13:43
[BT下载]神战:权力之眼[3D左右]Gods.of.Egypt.2016.3D.1080p.BluRay.x264-PSYCHD 10.9 ... attach_img 百度云电影 2016-6-11 0129 百度云电影 2016-6-11 13:41
[BT下载]疯狂动物城[3D左右]Zootopia.2016.3D.1080p.BluRay.x264-PSYCHD 8.74GB ... . ... attach_img 百度云电影 2016-6-11 0148 百度云电影 2016-6-11 13:41
[BT下载]鸭尊宝[3D左右]Quackerz.2016.1080p.3D.BluRay.Half-SBS.x264.DTS-HD.MA.5.1- ... attach_img 百度云电影 2016-6-7 0163 百度云电影 2016-6-7 13:31
[BT下载]鸭尊宝[3D上下]Quackerz.2016.1080p.3D.BluRay.Half-OU.x264.DTS-HD.MA.5.1-R ... attach_img 百度云电影 2016-6-7 0127 百度云电影 2016-6-7 13:31
123 百度云电影 2016-6-1 0101 百度云电影 2016-6-1 13:04
[BT下载]美国恐怖/恐怖行动 An.American.Terror.3D.2014.1080p.BluRay.x264-UNVEiL 6. ... attach_img 百度云电影 2016-6-1 0107 百度云电影 2016-6-1 13:04
[BT下载][美人鱼][左右格式].2016.3D.BluRay.1080p.HSBS.x264.TrueHD5.1.2Audios-CMCT ... attach_img 百度云电影 2016-5-31 0155 百度云电影 2016-5-31 13:01
[BT下载][美人鱼][上下格式].2016.3D.BluRay.1080p.HOU.x264.TrueHD5.1.2Audios-CMCT[ ... attach_img 百度云电影 2016-5-31 075 百度云电影 2016-5-31 13:01
[BT下载]恶灵狂呼[3D左右]Poltergeist.Activity.2015.3D.1080p.BluRay.x264-VALUE 6.6 ... attach_img 百度云电影 2016-5-30 075 百度云电影 2016-5-30 13:00
[BT下载]怒海救援[3D上下]2016.1080p.3D.BluRay.Half-OU.x264.DTS-HD.MA.HR.7.1-RARBG ... attach_img 百度云电影 2016-5-29 091 百度云电影 2016-5-29 12:55
[BT下载]怒海救援[3D左右]2016.1080p.3D.BluRay.Half-SBS.x264.DTS-HD.MA.HR.7.1-RARB ... attach_img 百度云电影 2016-5-29 065 百度云电影 2016-5-29 12:55
[BT下载]疯狂动物城[3D上下]2016.1080p.3D.BluRay.Half-OU.x264.DTS-HD.MA.7.1-RARBG ... attach_img 百度云电影 2016-5-29 093 百度云电影 2016-5-29 12:55
下一页 »

小黑屋|西西电影站 ( 闽ICP备160050789号-1 )

所有资源来自网络采集,如果侵犯了您的权益,请发邮件至 635343653@qq.com,立即清除相关链接

GMT+8, 2017-1-18 13:51 , Processed in 0.068505 second(s), 16 queries .

Powered by Discuz! X3.2

© 2001-2013 Comsenz Inc.

返回顶部 返回版块